WIII METAR and TAF | Updated Today

WIII METAR

Soekarno-Hatta International Airport

Observation time: 2 min. ago

WIII 032130Z 24007KT 6000 FEW020 26/24 Q1009 NOSIG

Need help? Read our tutorial on how to read METARs or read the parsed version below.

Soekarno-Hatta International Airport (WIII) METAR

  • Weather conditions on Fri, 03 Dec 2021 21:30:00 +0000 (2 min. ago):
  • Present conditions: Dry
  • Clouds: A few at 610 meters
  • Visibility: 6000 meters
  • Wind: 240 degrees at 7 knots
  • Temperature: 26 celsius
  • Dew point: 24 celsius
  • Pressure: 1009 millibars
  • Remarks: None


Useful to know...

WIII TAF

Soekarno-Hatta International Airport

TAF WIII 031700Z 0318/0424 24005KT 7000 SCT020 BECMG 0402/0404 30012KT
Observation time: 4:32 hr. ago
Need help? Read our tutorial on how to read TAFs or read the parsed version below.

Parsed version of TAF for Soekarno-Hatta International Airport (WIII)

  • From 03 December at 18:00 UTC, to day 04 of the month at 24:00 UTC
  • Clouds: Scattered at 610 meters
  • Visibility: 7000 meters
  • Wind: 240 degrees at 5
  • Expected to arise soon, from 04 December at 02:00 UTC, to day 04 of the month at 04:00 UTC
  • Wind: 300 degrees at 12